Time;durP1;ratioP1;P1;durP2;ratioP2;P2;SDS_P1;SDS_P2;PMS_P1;PMS_P2;Temp;Humidity;BMP_temperature;BMP_pressure;BME280_temperature;BME280_humidity;BME280_pressure;Samples;Min_cycle;Max_cycle;Signal;HPM_P1;HPM_P2
2023/03/27 00:01:29;;;;;;;19.30;12.60;;;;;;;4.00;80.41;99047.27;104123;276;38245;-71
2023/03/27 00:04:03;;;;;;;18.70;13.00;;;;;;;3.97;80.43;99046.67;104143;275;38273;-70
2023/03/27 00:06:37;;;;;;;22.20;13.50;;;;;;;3.96;80.52;99043.95;104005;276;175661;-70
2023/03/27 00:09:11;;;;;;;20.40;14.30;;;;;;;3.92;80.52;99043.73;104135;275;38815;-73
2023/03/27 00:11:46;;;;;;;20.60;13.30;;;;;;;3.89;80.59;99043.98;103995;276;39680;-73
2023/03/27 00:14:20;;;;;;;20.40;13.50;;;;;;;3.87;80.60;99044.41;104162;275;38032;-74
2023/03/27 00:16:56;;;;;;;20.60;13.40;;;;;;;3.86;80.71;99039.27;104094;275;38484;-74
2023/03/27 00:19:30;;;;;;;24.20;15.10;;;;;;;3.87;80.84;99037.32;104098;276;38520;-72
2023/03/27 00:22:04;;;;;;;20.80;14.30;;;;;;;3.89;81.00;99036.59;104004;276;38237;-70
2023/03/27 00:24:39;;;;;;;22.00;15.00;;;;;;;3.89;81.07;99031.92;104144;275;39577;-72
2023/03/27 00:27:15;;;;;;;20.20;14.00;;;;;;;3.88;80.99;99028.85;104090;275;38342;-72
2023/03/27 00:29:49;;;;;;;24.80;15.50;;;;;;;3.88;81.13;99029.20;104130;275;38268;-70
2023/03/27 00:32:23;;;;;;;22.10;15.50;;;;;;;3.88;81.18;99033.50;104157;275;38985;-73
2023/03/27 00:34:57;;;;;;;24.70;15.50;;;;;;;3.88;81.16;99029.02;104148;275;39735;-71
2023/03/27 00:37:31;;;;;;;26.60;17.20;;;;;;;3.88;81.02;99030.40;104124;276;38562;-71
2023/03/27 00:40:07;;;;;;;24.70;15.50;;;;;;;3.86;80.99;99029.59;104103;276;38400;-69
2023/03/27 00:42:41;;;;;;;25.50;15.90;;;;;;;3.83;80.96;99026.92;104163;275;39415;-71
2023/03/27 00:45:20;;;;;;;23.70;15.10;;;;;;;3.80;80.85;99023.06;104136;275;38856;-70
2023/03/27 00:47:55;;;;;;;24.60;16.30;;;;;;;3.79;80.87;99020.16;104176;275;38486;-72
2023/03/27 00:50:32;;;;;;;26.10;17.60;;;;;;;3.79;80.86;99018.95;104130;275;38664;-74
2023/03/27 00:53:08;;;;;;;28.20;17.50;;;;;;;3.77;80.85;99016.10;104117;275;38871;-72
2023/03/27 00:55:46;;;;;;;28.60;17.70;;;;;;;3.73;80.95;99012.80;104147;275;38794;-71
2023/03/27 00:58:22;;;;;;;25.30;16.60;;;;;;;3.66;80.70;99009.55;104123;275;38295;-72
2023/03/27 01:00:56;;;;;;;24.40;16.10;;;;;;;3.59;80.57;99005.45;104139;275;38220;-74
2023/03/27 01:03:32;;;;;;;24.40;16.60;;;;;;;3.55;80.66;99005.92;104153;275;38352;-70
2023/03/27 01:06:07;;;;;;;29.10;18.20;;;;;;;3.51;80.59;99002.09;103504;275;911573;-69
2023/03/27 01:08:41;;;;;;;26.70;17.40;;;;;;;3.48;80.65;98996.31;104116;263;38752;-73
2023/03/27 01:11:22;;;;;;;27.50;17.40;;;;;;;3.41;80.47;98996.52;104106;275;38551;-74
2023/03/27 01:14:11;;;;;;;25.70;16.80;;;;;;;3.32;80.54;99003.20;104122;275;38243;-72
2023/03/27 01:16:53;;;;;;;25.00;15.60;;;;;;;3.22;80.52;99010.05;104012;276;39699;-73
2023/03/27 01:19:55;;;;;;;25.00;15.20;;;;;;;3.14;80.55;99012.17;104028;276;38288;-69
2023/03/27 01:22:58;;;;;;;24.90;16.40;;;;;;;3.10;80.67;99013.50;104200;275;38612;-72
2023/03/27 01:26:04;;;;;;;26.20;17.20;;;;;;;3.05;80.55;99016.56;104109;275;38685;-72
2023/03/27 01:28:44;;;;;;;27.90;18.30;;;;;;;2.99;80.66;99018.12;103889;275;38446;-71
2023/03/27 01:31:33;;;;;;;26.10;16.70;;;;;;;2.94;80.70;99019.84;103988;277;38966;-70
2023/03/27 01:34:42;;;;;;;25.10;16.60;;;;;;;2.87;80.88;99017.59;103686;275;548722;-74
2023/03/27 01:37:31;;;;;;;28.70;16.30;;;;;;;2.81;80.94;99010.71;103812;275;38250;-74
2023/03/27 01:40:06;;;;;;;22.50;15.70;;;;;;;2.77;81.00;99005.48;104090;267;39866;-73
2023/03/27 01:42:44;;;;;;;22.80;16.30;;;;;;;2.75;81.12;99006.41;104131;275;39426;-72
2023/03/27 01:45:21;;;;;;;24.30;16.00;;;;;;;2.71;80.95;99009.80;104159;275;40516;-72
2023/03/27 01:47:58;;;;;;;22.20;15.30;;;;;;;2.66;80.88;99015.80;104150;275;39181;-70
2023/03/27 01:50:36;;;;;;;23.80;15.40;;;;;;;2.58;80.78;99019.80;104119;275;39822;-72
2023/03/27 01:53:12;;;;;;;24.50;15.40;;;;;;;2.52;80.94;99023.92;104170;276;38702;-69
2023/03/27 01:55:50;;;;;;;22.90;15.30;;;;;;;2.49;81.07;99030.37;104126;263;38383;-71
2023/03/27 01:58:29;;;;;;;22.40;15.40;;;;;;;2.47;81.34;99033.00;104184;275;38275;-71
2023/03/27 02:01:04;;;;;;;22.00;15.60;;;;;;;2.44;81.10;99033.43;104181;275;38740;-71
2023/03/27 02:03:40;;;;;;;21.40;14.40;;;;;;;2.36;81.12;99031.23;104168;274;38486;-74
2023/03/27 02:06:16;;;;;;;20.60;13.70;;;;;;;2.29;81.18;99031.75;104154;263;39028;-74
2023/03/27 02:08:51;;;;;;;19.00;13.50;;;;;;;2.23;81.19;99033.64;104137;274;39431;-72
2023/03/27 02:11:27;;;;;;;18.70;13.70;;;;;;;2.20;81.48;99034.22;104141;274;38566;-72
2023/03/27 02:14:04;;;;;;;20.10;13.40;;;;;;;2.16;81.25;99032.60;104143;274;38400;-69
2023/03/27 02:16:41;;;;;;;22.60;14.50;;;;;;;2.11;81.30;99029.63;104169;274;38790;-69
2023/03/27 02:19:19;;;;;;;24.70;16.50;;;;;;;2.08;81.39;99031.08;104160;274;39863;-71
2023/03/27 02:21:53;;;;;;;23.60;15.40;;;;;;;2.02;81.35;99032.95;104145;274;38294;-72
2023/03/27 02:24:27;;;;;;;20.30;14.00;;;;;;;1.98;81.67;99032.52;104154;274;39893;-71
2023/03/27 02:27:05;;;;;;;19.20;13.80;;;;;;;1.97;81.72;99032.89;104131;275;39425;-71
2023/03/27 02:29:49;;;;;;;19.60;13.90;;;;;;;1.98;81.89;99031.84;104151;274;39396;-72
2023/03/27 02:32:33;;;;;;;22.20;15.00;;;;;;;1.96;81.83;99031.37;104148;274;38513;-71
2023/03/27 02:35:17;;;;;;;21.00;14.20;;;;;;;1.92;81.75;99034.21;104102;274;38776;-72
2023/03/27 02:37:57;;;;;;;21.20;12.90;;;;;;;1.87;81.76;99033.48;104185;274;39762;-72
2023/03/27 02:40:40;;;;;;;19.70;12.70;;;;;;;1.80;81.62;99036.94;104148;263;39971;-72
2023/03/27 02:43:17;;;;;;;19.70;13.40;;;;;;;1.74;81.70;99042.92;104059;274;172712;-72
2023/03/27 02:45:56;;;;;;;17.50;12.70;;;;;;;1.71;81.87;99042.31;104014;274;175837;-72
2023/03/27 02:48:34;;;;;;;19.00;13.20;;;;;;;1.65;81.70;99042.78;104210;274;38941;-73
2023/03/27 02:51:11;;;;;;;19.60;13.00;;;;;;;1.61;81.88;99043.04;104019;276;38456;-72
2023/03/27 02:53:47;;;;;;;20.40;13.50;;;;;;;1.58;82.00;99036.92;104065;275;38421;-69
2023/03/27 02:56:22;;;;;;;20.30;12.30;;;;;;;1.55;82.20;99039.56;104149;274;39588;-69
2023/03/27 02:58:58;;;;;;;18.50;13.20;;;;;;;1.52;82.23;99042.04;104150;274;38251;-72
2023/03/27 03:01:32;;;;;;;20.10;13.00;;;;;;;1.50;82.44;99039.52;104143;274;38251;-71
2023/03/27 03:04:08;;;;;;;21.20;14.50;;;;;;;1.51;82.66;99036.22;104198;274;38699;-70
2023/03/27 03:06:43;;;;;;;22.70;14.10;;;;;;;1.50;82.62;99041.73;104190;274;38530;-72
2023/03/27 03:09:17;;;;;;;22.70;14.50;;;;;;;1.47;82.59;99050.23;104180;274;39573;-69
2023/03/27 03:11:53;;;;;;;19.70;12.60;;;;;;;1.45;82.62;99052.00;104155;274;38509;-68
2023/03/27 03:14:29;;;;;;;19.60;13.00;;;;;;;1.38;82.30;99055.75;104209;274;38507;-71
2023/03/27 03:17:03;;;;;;;20.10;13.70;;;;;;;1.33;82.25;99052.77;104148;274;39413;-69
2023/03/27 03:19:37;;;;;;;21.50;14.20;;;;;;;1.29;82.21;99049.92;104175;274;39422;-69
2023/03/27 03:22:13;;;;;;;21.10;13.70;;;;;;;1.26;82.39;99048.27;104142;274;39441;-70
2023/03/27 03:24:51;;;;;;;19.80;13.70;;;;;;;1.23;82.44;99045.27;104179;274;38669;-72
2023/03/27 03:27:27;;;;;;;22.30;14.20;;;;;;;1.16;82.36;99041.80;104035;276;38428;-73
2023/03/27 03:30:03;;;;;;;25.40;15.10;;;;;;;1.13;82.55;99045.14;104150;274;39492;-74
2023/03/27 03:32:38;;;;;;;20.30;13.50;;;;;;;1.14;83.02;99043.40;104159;274;38705;-72
2023/03/27 03:35:13;;;;;;;19.30;13.60;;;;;;;1.13;83.00;99041.69;104151;274;39835;-72
2023/03/27 03:37:50;;;;;;;20.20;14.40;;;;;;;1.13;82.87;99038.27;104238;274;40289;-68
2023/03/27 03:40:25;;;;;;;22.40;14.80;;;;;;;1.13;82.98;99032.59;104179;274;39425;-70
2023/03/27 03:43:00;;;;;;;21.40;15.70;;;;;;;1.15;83.29;99035.81;104190;274;38303;-69
2023/03/27 03:45:34;;;;;;;21.60;15.80;;;;;;;1.19;83.58;99042.42;104164;274;38499;-71
2023/03/27 03:48:08;;;;;;;23.30;15.60;;;;;;;1.20;83.66;99038.97;104181;274;40175;-70
2023/03/27 03:50:42;;;;;;;24.50;15.50;;;;;;;1.25;84.00;99045.05;104187;274;38473;-72
2023/03/27 03:53:17;;;;;;;22.60;14.80;;;;;;;1.32;84.16;99048.16;104183;274;39777;-68
2023/03/27 03:55:53;;;;;;;23.40;15.60;;;;;;;1.36;84.26;99051.15;104162;275;39469;-69
2023/03/27 03:58:28;;;;;;;27.30;16.20;;;;;;;1.45;84.47;99047.52;104196;274;38403;-69
2023/03/27 04:01:03;;;;;;;24.80;16.40;;;;;;;1.54;84.33;99044.05;104193;274;38529;-69
2023/03/27 04:03:37;;;;;;;27.50;17.70;;;;;;;1.59;84.49;99046.52;104187;274;38612;-74
2023/03/27 04:06:12;;;;;;;30.80;19.20;;;;;;;1.65;84.66;99054.30;104158;274;39693;-75
2023/03/27 04:08:46;;;;;;;27.70;17.90;;;;;;;1.70;84.83;99060.88;104230;274;38826;-69
2023/03/27 04:11:20;;;;;;;31.40;19.00;;;;;;;1.78;85.02;99060.02;104164;274;38879;-71
2023/03/27 04:13:54;;;;;;;29.10;18.50;;;;;;;1.85;85.07;99057.10;104208;274;38514;-73
2023/03/27 04:16:28;;;;;;;27.90;18.10;;;;;;;1.91;85.04;99058.67;104168;274;39056;-74
2023/03/27 04:19:04;;;;;;;29.20;18.80;;;;;;;1.95;85.25;99061.31;104202;274;38976;-70
2023/03/27 04:21:38;;;;;;;27.90;18.10;;;;;;;1.98;85.36;99065.04;104163;274;38359;-70
2023/03/27 04:24:12;;;;;;;32.20;20.00;;;;;;;2.01;85.47;99068.05;104172;274;38274;-71
2023/03/27 04:26:47;;;;;;;32.40;19.80;;;;;;;2.07;85.48;99074.79;104047;275;38293;-71
2023/03/27 04:29:21;;;;;;;33.40;21.00;;;;;;;2.13;85.25;99070.02;104202;274;39154;-71
2023/03/27 04:31:55;;;;;;;40.90;23.30;;;;;;;2.17;85.36;99070.93;104193;274;40048;-69
2023/03/27 04:34:29;;;;;;;38.10;22.70;;;;;;;2.21;85.61;99079.09;104154;274;39710;-75
2023/03/27 04:37:03;;;;;;;38.00;20.30;;;;;;;2.27;85.96;99084.28;104189;274;39623;-73
2023/03/27 04:39:41;;;;;;;31.10;18.70;;;;;;;2.36;85.96;99086.13;104226;274;38237;-71
2023/03/27 04:42:16;;;;;;;30.00;17.50;;;;;;;2.41;85.72;99086.67;104166;274;39532;-71
2023/03/27 04:44:51;;;;;;;28.00;18.00;;;;;;;2.43;85.58;99089.38;104006;276;38689;-69
2023/03/27 04:47:25;;;;;;;26.40;17.20;;;;;;;2.49;85.68;99090.94;104160;274;39200;-74
2023/03/27 04:50:00;;;;;;;26.60;16.70;;;;;;;2.55;85.78;99092.33;104179;274;40231;-74
2023/03/27 04:52:34;;;;;;;22.60;15.40;;;;;;;2.58;85.57;99094.33;104188;274;38864;-71
2023/03/27 04:55:11;;;;;;;25.60;15.20;;;;;;;2.58;85.55;99095.89;104031;274;175747;-69
2023/03/27 04:57:48;;;;;;;22.70;15.40;;;;;;;2.63;85.74;99097.84;104063;274;175431;-73
2023/03/27 05:00:24;;;;;;;25.90;15.80;;;;;;;2.69;85.94;99098.02;104159;274;38767;-73
2023/03/27 05:03:00;;;;;;;27.50;16.10;;;;;;;2.75;86.11;99095.45;104164;274;38246;-72
2023/03/27 05:05:34;;;;;;;23.00;16.40;;;;;;;2.81;86.21;99096.15;104164;274;38428;-71
2023/03/27 05:08:08;;;;;;;22.20;14.50;;;;;;;2.87;86.42;99093.38;104138;274;38983;-75
2023/03/27 05:10:42;;;;;;;17.30;13.00;;;;;;;2.97;86.53;99096.58;104036;276;39053;-75
2023/03/27 05:13:17;;;;;;;16.70;12.50;;;;;;;3.06;86.62;99096.64;104147;274;39597;-74
2023/03/27 05:15:52;;;;;;;19.30;12.40;;;;;;;3.19;86.76;99097.16;104032;276;38237;-73
2023/03/27 05:18:26;;;;;;;18.30;13.80;;;;;;;3.29;86.90;99102.19;104172;274;38231;-73
2023/03/27 05:21:00;;;;;;;23.90;15.50;;;;;;;3.39;87.04;99099.67;104183;274;38370;-73
2023/03/27 05:23:35;;;;;;;23.40;15.50;;;;;;;3.47;87.09;99103.06;104175;274;38594;-74
2023/03/27 05:26:09;;;;;;;30.30;20.50;;;;;;;3.56;87.21;99097.95;104155;274;40279;-70
2023/03/27 05:28:43;;;;;;;35.10;22.90;;;;;;;3.66;87.36;99102.66;104142;274;39528;-73
2023/03/27 05:31:19;;;;;;;30.90;20.40;;;;;;;3.79;87.39;99096.23;104176;274;39812;-73
2023/03/27 05:33:53;;;;;;;20.70;16.00;;;;;;;3.93;87.51;99098.71;104167;275;38311;-72
2023/03/27 05:36:28;;;;;;;18.70;13.70;;;;;;;4.05;87.51;99096.61;104179;275;38773;-69
2023/03/27 05:39:03;;;;;;;15.60;10.50;;;;;;;4.16;87.35;99100.77;104183;274;38308;-72
2023/03/27 05:41:37;;;;;;;12.70;9.70;;;;;;;4.22;87.18;99104.55;104138;274;38506;-73
2023/03/27 05:44:11;;;;;;;16.50;11.50;;;;;;;4.26;86.92;99108.36;104211;274;39400;-73
2023/03/27 05:46:45;;;;;;;15.20;11.40;;;;;;;4.31;86.74;99109.27;103295;274;910904;-75
2023/03/27 05:49:19;;;;;;;15.60;11.20;;;;;;;4.35;86.69;99111.52;104171;274;39088;-70
2023/03/27 05:51:54;;;;;;;16.30;10.90;;;;;;;4.37;86.48;99115.23;104197;274;38839;-70
2023/03/27 05:54:28;;;;;;;15.20;10.50;;;;;;;4.41;86.44;99119.62;104182;274;38284;-75
2023/03/27 05:57:04;;;;;;;13.40;10.60;;;;;;;4.46;86.32;99124.63;104155;274;39794;-74
2023/03/27 05:59:39;;;;;;;18.70;11.90;;;;;;;4.50;86.23;99127.09;104188;274;39415;-73
2023/03/27 06:02:17;;;;;;;18.50;12.60;;;;;;;4.54;86.19;99129.91;104191;274;38710;-73
2023/03/27 06:04:52;;;;;;;15.40;10.70;;;;;;;4.60;86.17;99132.65;104231;274;38504;-74
2023/03/27 06:07:30;;;;;;;16.60;11.40;;;;;;;4.64;86.07;99129.04;104241;274;38477;-70
2023/03/27 06:10:07;;;;;;;16.50;10.80;;;;;;;4.70;85.77;99129.39;104150;274;38236;-71
2023/03/27 06:12:42;;;;;;;14.40;10.20;;;;;;;4.77;85.91;99127.05;104060;275;39280;-73
2023/03/27 06:15:17;;;;;;;14.70;9.70;;;;;;;4.92;85.81;99134.81;104152;263;38253;-71
2023/03/27 06:17:52;;;;;;;11.20;8.20;;;;;;;5.06;85.39;99134.70;104174;274;38364;-74
2023/03/27 06:20:26;;;;;;;13.10;8.10;;;;;;;5.13;84.75;99136.68;104029;274;175294;-72
2023/03/27 06:23:01;;;;;;;14.30;9.00;;;;;;;5.18;84.62;99136.69;104163;274;38233;-74
2023/03/27 06:25:37;;;;;;;11.50;7.80;;;;;;;5.26;84.59;99140.52;104195;263;38499;-75
2023/03/27 06:28:12;;;;;;;13.10;8.00;;;;;;;5.34;83.98;99143.17;104169;274;38785;-71
2023/03/27 06:30:46;;;;;;;14.30;8.40;;;;;;;5.42;83.84;99147.90;104145;274;38457;-71
2023/03/27 06:33:21;;;;;;;16.00;7.40;;;;;;;5.53;83.74;99147.52;104138;274;39745;-71
2023/03/27 06:35:59;;;;;;;11.10;7.50;;;;;;;5.66;83.66;99151.70;104145;274;38223;-69
2023/03/27 06:38:33;;;;;;;12.00;7.40;;;;;;;5.80;83.32;99156.36;104149;274;38538;-72
2023/03/27 06:41:07;;;;;;;12.00;7.30;;;;;;;5.95;83.07;99159.98;104138;275;39383;-72
2023/03/27 06:43:41;;;;;;;9.80;6.40;;;;;;;6.06;82.26;99165.40;104178;274;39625;-70
2023/03/27 06:46:16;;;;;;;11.40;5.70;;;;;;;6.15;81.43;99167.48;104185;274;38607;-69
2023/03/27 06:48:51;;;;;;;10.70;5.30;;;;;;;6.30;81.05;99172.10;104116;274;38263;-72
2023/03/27 06:51:25;;;;;;;11.60;4.70;;;;;;;6.44;80.01;99173.96;104157;274;38255;-72
2023/03/27 06:54:00;;;;;;;10.40;4.80;;;;;;;6.56;78.70;99170.88;104181;274;38285;-72
2023/03/27 06:56:34;;;;;;;10.50;4.90;;;;;;;6.61;77.61;99175.86;104140;274;38623;-74
2023/03/27 06:59:08;;;;;;;8.10;5.00;;;;;;;6.66;76.74;99176.20;104179;274;39441;-70
2023/03/27 07:01:42;;;;;;;10.70;4.60;;;;;;;6.66;76.13;99184.52;104141;274;38669;-70
2023/03/27 07:04:16;;;;;;;9.70;4.70;;;;;;;6.69;75.49;99185.07;104189;274;38453;-72
2023/03/27 07:06:50;;;;;;;10.30;4.80;;;;;;;6.73;75.37;99185.25;104144;274;39550;-72
2023/03/27 07:09:24;;;;;;;7.90;4.70;;;;;;;6.84;75.32;99183.25;104183;274;38287;-71
2023/03/27 07:11:58;;;;;;;10.70;5.90;;;;;;;6.96;74.84;99188.63;104162;267;39304;-69
2023/03/27 07:14:32;;;;;;;13.00;5.00;;;;;;;7.09;74.32;99187.23;104206;274;38938;-74
2023/03/27 07:17:07;;;;;;;10.60;5.10;;;;;;;7.23;73.79;99188.52;104201;274;39406;-73
2023/03/27 07:19:42;;;;;;;9.00;4.80;;;;;;;7.49;74.27;99196.25;104252;274;38463;-74
2023/03/27 07:22:20;;;;;;;10.40;5.40;;;;;;;8.03;75.10;99194.13;104058;274;38364;-74
2023/03/27 07:24:54;;;;;;;9.30;5.20;;;;;;;8.45;72.55;99190.45;104152;274;38233;-74
2023/03/27 07:27:29;;;;;;;7.10;4.40;;;;;;;8.67;71.20;99189.22;104208;275;38816;-73
2023/03/27 07:30:04;;;;;;;9.60;4.30;;;;;;;8.85;70.07;99196.50;104188;274;39770;-72
2023/03/27 07:32:41;;;;;;;8.30;3.50;;;;;;;8.96;68.00;99202.40;104256;274;39454;-74
2023/03/27 07:35:17;;;;;;;6.60;3.30;;;;;;;8.92;66.68;99202.76;104197;274;39950;-71
2023/03/27 07:37:51;;;;;;;7.90;2.80;;;;;;;8.77;65.70;99205.56;104175;275;38259;-75
2023/03/27 07:40:26;;;;;;;5.70;2.80;;;;;;;8.72;66.04;99206.34;104174;274;38382;-74
2023/03/27 07:43:05;;;;;;;5.60;3.00;;;;;;;8.74;66.42;99205.40;104214;263;39699;-72
2023/03/27 07:45:38;;;;;;;;;;;;;;;8.83;65.52;99207.91;104188;274;38275;-71
2023/03/27 07:48:14;;;;;;;5.90;2.80;;;;;;;8.82;65.49;99214.18;104193;274;39555;-71
2023/03/27 07:50:48;;;;;;;5.30;2.80;;;;;;;8.84;63.99;99216.55;104190;274;39605;-73
2023/03/27 07:53:24;;;;;;;10.00;3.20;;;;;;;8.75;63.34;99225.29;104239;274;38314;-71
2023/03/27 07:55:59;;;;;;;5.70;2.80;;;;;;;8.68;64.26;99227.73;104163;274;38270;-71
2023/03/27 07:58:33;;;;;;;5.00;3.20;;;;;;;8.60;63.67;99230.40;104200;274;38410;-74
2023/03/27 08:01:10;;;;;;;6.10;3.20;;;;;;;8.47;63.56;99232.94;104177;274;39494;-70
2023/03/27 08:03:46;;;;;;;7.50;2.80;;;;;;;8.40;64.20;99232.36;104231;274;39273;-72
2023/03/27 08:06:20;;;;;;;7.10;3.00;;;;;;;8.43;64.20;99235.57;104167;274;39622;-73
2023/03/27 08:08:55;;;;;;;6.60;2.80;;;;;;;8.38;63.54;99236.64;104216;274;39385;-71
2023/03/27 08:11:30;;;;;;;4.90;2.80;;;;;;;8.26;63.37;99244.14;104156;274;38492;-74
2023/03/27 08:14:14;;;;;;;5.90;2.50;;;;;;;8.14;63.33;99248.14;104214;274;38841;-72
2023/03/27 08:16:50;;;;;;;4.90;2.30;;;;;;;8.13;63.64;99247.88;104144;274;39018;-74
2023/03/27 08:19:25;;;;;;;3.90;2.10;;;;;;;8.21;63.98;99252.69;104210;274;38383;-72
2023/03/27 08:22:00;;;;;;;4.30;2.40;;;;;;;8.32;63.63;99261.07;104026;275;38500;-71
2023/03/27 08:24:34;;;;;;;7.20;2.80;;;;;;;8.43;63.48;99265.06;104203;274;38526;-73
2023/03/27 08:27:08;;;;;;;4.50;2.40;;;;;;;8.53;63.32;99267.40;104139;274;39409;-72
2023/03/27 08:29:43;;;;;;;3.80;2.20;;;;;;;8.56;63.03;99270.71;104181;274;38236;-69
2023/03/27 08:32:18;;;;;;;6.10;2.80;;;;;;;8.54;61.74;99276.05;104167;274;39417;-71
2023/03/27 08:34:52;;;;;;;5.10;2.20;;;;;;;8.47;61.81;99275.51;104133;274;38463;-70
2023/03/27 08:37:26;;;;;;;6.70;2.60;;;;;;;8.47;61.37;99276.37;104166;274;38855;-70
2023/03/27 08:40:00;;;;;;;4.90;2.80;;;;;;;8.46;61.12;99275.73;104163;274;38531;-71
2023/03/27 08:42:38;;;;;;;4.80;2.20;;;;;;;8.46;61.62;99277.45;104195;274;38343;-72
2023/03/27 08:45:19;;;;;;;4.80;2.50;;;;;;;8.54;62.01;99275.86;104116;274;38480;-71
2023/03/27 08:47:56;;;;;;;3.30;1.80;;;;;;;8.58;61.36;99283.16;104182;274;39401;-71
2023/03/27 08:50:36;;;;;;;3.70;2.40;;;;;;;8.52;60.29;99287.11;104104;274;38520;-69
2023/03/27 08:53:17;;;;;;;3.80;1.90;;;;;;;8.33;59.66;99290.73;104100;274;172619;-71
2023/03/27 08:55:51;;;;;;;3.00;1.90;;;;;;;8.19;60.79;99296.93;104116;274;38396;-71
2023/03/27 08:58:25;;;;;;;5.10;2.60;;;;;;;8.17;60.95;99298.92;104136;274;38943;-71
2023/03/27 09:01:07;;;;;;;3.70;2.00;;;;;;;8.16;61.19;99302.80;104128;274;38369;-70
2023/03/27 09:03:44;;;;;;;3.80;2.60;;;;;;;8.15;61.27;99305.98;104186;274;39432;-71
2023/03/27 09:06:25;;;;;;;4.40;2.30;;;;;;;8.12;61.35;99308.88;104111;274;38490;-71
2023/03/27 09:09:06;;;;;;;3.90;2.50;;;;;;;8.07;61.20;99308.23;104130;275;39434;-71
2023/03/27 09:11:53;;;;;;;5.80;2.20;;;;;;;7.95;60.71;99314.99;104152;274;38418;-72
2023/03/27 09:14:32;;;;;;;8.10;2.30;;;;;;;7.89;61.40;99314.61;104144;263;38246;-72
2023/03/27 09:17:10;;;;;;;5.20;2.40;;;;;;;7.84;61.07;99315.14;104167;274;39913;-71
2023/03/27 09:19:48;;;;;;;5.10;2.20;;;;;;;7.80;61.14;99315.33;104049;274;39661;-73
2023/03/27 09:22:26;;;;;;;5.80;2.20;;;;;;;7.70;60.93;99318.70;104212;274;39471;-71
2023/03/27 09:25:02;;;;;;;4.60;2.50;;;;;;;7.65;60.94;99318.77;104219;274;39555;-70
2023/03/27 09:27:37;;;;;;;7.30;3.00;;;;;;;7.61;60.58;99317.55;104194;274;38853;-73
2023/03/27 09:30:23;;;;;;;6.50;2.90;;;;;;;7.55;60.46;99329.61;104131;274;38367;-73
2023/03/27 09:33:00;;;;;;;5.30;2.30;;;;;;;7.46;60.48;99337.42;104163;275;39471;-71
2023/03/27 09:35:37;;;;;;;4.30;2.30;;;;;;;7.38;60.20;99345.06;103652;275;38699;-72
2023/03/27 09:38:24;;;;;;;4.20;2.50;;;;;;;7.33;60.58;99346.16;104159;275;38227;-71
2023/03/27 09:41:01;;;;;;;4.60;1.90;;;;;;;7.29;60.28;99349.80;104138;274;38484;-71
2023/03/27 09:43:39;;;;;;;4.40;2.20;;;;;;;7.22;59.92;99357.34;104154;275;39087;-69
2023/03/27 09:46:16;;;;;;;5.70;1.90;;;;;;;7.22;60.09;99356.61;104162;274;38235;-69
2023/03/27 09:48:56;;;;;;;3.00;2.10;;;;;;;7.25;59.73;99357.05;104172;275;38947;-69
2023/03/27 09:51:45;;;;;;;3.50;2.20;;;;;;;7.25;59.20;99355.15;104020;274;38558;-70
2023/03/27 09:54:21;;;;;;;5.10;2.30;;;;;;;7.23;59.24;99352.27;104049;276;38661;-72
2023/03/27 09:56:58;;;;;;;3.70;2.00;;;;;;;7.31;60.04;99352.61;104133;275;38777;-72
2023/03/27 09:59:33;;;;;;;3.40;1.90;;;;;;;7.40;59.34;99356.26;104148;275;39731;-74
2023/03/27 10:02:21;;;;;;;2.50;1.70;;;;;;;7.41;57.93;99361.08;104128;275;39443;-71
2023/03/27 10:05:10;;;;;;;3.00;1.90;;;;;;;7.35;58.13;99364.45;104153;275;38227;-71
2023/03/27 10:07:45;;;;;;;5.60;2.10;;;;;;;7.37;58.16;99365.58;104171;275;39345;-73
2023/03/27 10:10:20;;;;;;;3.80;2.00;;;;;;;7.40;57.86;99364.06;104140;274;39692;-73
2023/03/27 10:12:57;;;;;;;4.50;2.00;;;;;;;7.49;58.28;99367.02;104136;275;39397;-71
2023/03/27 10:15:37;;;;;;;5.80;2.60;;;;;;;7.61;58.23;99373.95;104151;275;38532;-70
2023/03/27 10:18:23;;;;;;;3.20;1.60;;;;;;;7.68;57.10;99382.34;104139;275;39911;-70
2023/03/27 10:20:59;;;;;;;3.30;2.10;;;;;;;7.71;56.82;99382.39;104130;275;38537;-70
2023/03/27 10:23:42;;;;;;;6.00;2.80;;;;;;;7.80;57.05;99380.60;104176;275;39725;-73
2023/03/27 10:26:19;;;;;;;4.10;2.00;;;;;;;7.94;56.66;99381.58;104133;274;38272;-71
2023/03/27 10:28:55;;;;;;;4.40;1.80;;;;;;;7.99;56.24;99375.79;104168;274;38261;-72
2023/03/27 10:31:32;;;;;;;3.00;2.00;;;;;;;8.03;56.28;99376.85;104109;274;39812;-70
2023/03/27 10:34:08;;;;;;;2.70;1.70;;;;;;;8.05;56.26;99378.86;104192;274;38794;-73
2023/03/27 10:36:43;;;;;;;3.60;2.20;;;;;;;8.08;55.52;99377.17;104008;274;38249;-74
2023/03/27 10:39:17;;;;;;;3.40;2.20;;;;;;;8.12;55.68;99376.45;104163;274;39374;-71
2023/03/27 10:41:51;;;;;;;3.60;1.90;;;;;;;8.25;56.11;99375.00;104162;274;38642;-72
2023/03/27 10:44:27;;;;;;;6.50;2.30;;;;;;;8.39;55.48;99380.84;104064;274;175088;-71
2023/03/27 10:47:01;;;;;;;5.00;2.00;;;;;;;8.45;54.99;99381.77;104141;274;38454;-74
2023/03/27 10:49:41;;;;;;;3.40;2.20;;;;;;;8.48;54.58;99382.35;104164;274;38333;-73
2023/03/27 10:52:25;;;;;;;4.50;1.90;;;;;;;8.41;53.87;99381.44;104184;274;38255;-71
2023/03/27 10:55:15;;;;;;;3.40;2.00;;;;;;;8.28;53.08;99378.01;104032;276;38890;-73
2023/03/27 10:57:53;;;;;;;3.90;2.10;;;;;;;8.22;53.37;99379.27;104214;274;37536;-73
2023/03/27 11:00:43;;;;;;;2.90;1.90;;;;;;;8.27;53.13;99386.55;104186;263;39414;-72
2023/03/27 11:03:20;;;;;;;3.70;2.30;;;;;;;8.26;51.58;99390.44;104176;270;38223;-70
2023/03/27 11:05:54;;;;;;;4.30;2.20;;;;;;;8.10;51.08;99388.70;104175;274;38585;-72
2023/03/27 11:08:33;;;;;;;4.40;2.30;;;;;;;8.01;51.65;99392.23;104159;274;38599;-73
2023/03/27 11:11:13;;;;;;;2.80;2.00;;;;;;;7.99;51.86;99391.61;104168;274;39655;-71
2023/03/27 11:13:47;;;;;;;3.00;2.00;;;;;;;8.01;52.26;99396.38;104195;274;39918;-72
2023/03/27 11:16:23;;;;;;;2.90;1.50;;;;;;;8.01;51.76;99396.75;104157;274;39705;-71
2023/03/27 11:19:30;;;;;;;2.30;1.70;;;;;;;7.91;50.70;99404.63;104159;267;39615;-71
2023/03/27 11:22:09;;;;;;;2.50;1.60;;;;;;;7.74;51.11;99400.67;104183;274;38745;-70
2023/03/27 11:24:50;;;;;;;3.00;2.00;;;;;;;7.79;51.90;99401.69;104156;274;38537;-72
2023/03/27 11:27:29;;;;;;;2.30;2.10;;;;;;;7.92;52.01;99406.70;104175;274;40151;-74
2023/03/27 11:30:13;;;;;;;3.30;1.80;;;;;;;8.00;51.71;99404.42;104208;274;38678;-73
2023/03/27 11:32:51;;;;;;;2.70;1.90;;;;;;;8.03;51.61;99405.51;104192;274;38268;-72
2023/03/27 11:35:27;;;;;;;4.00;2.10;;;;;;;8.07;51.72;99405.70;104122;274;38788;-72
2023/03/27 11:38:04;;;;;;;5.20;2.40;;;;;;;8.10;51.90;99406.27;104226;275;40367;-74
2023/03/27 11:40:40;;;;;;;3.20;1.70;;;;;;;8.19;52.09;99406.00;104205;274;39057;-71
2023/03/27 11:43:16;;;;;;;3.20;1.90;;;;;;;8.32;52.01;99401.98;104184;263;38627;-71
2023/03/27 11:46:00;;;;;;;3.30;2.00;;;;;;;8.39;51.59;99398.05;104134;274;38522;-71
2023/03/27 11:48:52;;;;;;;3.60;1.90;;;;;;;8.49;50.35;99394.16;104180;274;38869;-71
2023/03/27 11:51:38;;;;;;;3.50;1.80;;;;;;;8.46;49.29;99392.38;104149;274;38723;-73
2023/03/27 11:54:22;;;;;;;2.40;1.80;;;;;;;8.41;49.39;99397.09;104153;274;39518;-70
2023/03/27 11:56:58;;;;;;;4.20;1.70;;;;;;;8.37;49.76;99394.50;104184;274;38441;-69
2023/03/27 11:59:52;;;;;;;2.80;2.00;;;;;;;8.35;49.76;99394.73;103548;274;908074;-73
2023/03/27 12:03:05;;;;;;;3.00;2.10;;;;;;;8.39;49.87;99399.25;104198;274;38362;-72
2023/03/27 12:05:48;;;;;;;2.70;1.80;;;;;;;8.56;50.63;99390.87;103978;274;40690;-71
2023/03/27 12:08:26;;;;;;;4.20;2.00;;;;;;;8.75;50.03;99394.67;104168;274;39373;-71
2023/03/27 12:11:00;;;;;;;4.20;1.90;;;;;;;8.88;49.90;99392.51;104162;274;38467;-70
2023/03/27 12:14:02;;;;;;;2.20;1.70;;;;;;;8.90;49.25;99390.69;104165;274;39610;-70
2023/03/27 12:17:25;;;;;;;4.10;1.90;;;;;;;8.79;48.32;99397.44;104158;263;38566;-71
2023/03/27 12:20:44;;;;;;;1.80;1.40;;;;;;;8.55;48.23;99392.11;103628;280;39665;-71